sensor_id;sensor_type;location;lat;lon;timestamp;pressure;altitude;pressure_sealevel;temperature;humidity
34674;BME280;20879;55.668;37.858;2023-09-19T00:01:12;100323.59;;;9.34;100.00
34674;BME280;20879;55.668;37.858;2023-09-19T00:03:44;100328.75;;;9.31;100.00
34674;BME280;20879;55.668;37.858;2023-09-19T00:06:16;100335.66;;;9.41;100.00
34674;BME280;20879;55.668;37.858;2023-09-19T00:08:48;100330.50;;;9.26;100.00
34674;BME280;20879;55.668;37.858;2023-09-19T00:11:22;100333.94;;;9.36;100.00
34674;BME280;20879;55.668;37.858;2023-09-19T00:14:01;100325.31;;;9.26;100.00
34674;BME280;20879;55.668;37.858;2023-09-19T00:16:38;100329.63;;;9.16;100.00
34674;BME280;20879;55.668;37.858;2023-09-19T00:19:08;100323.59;;;9.05;100.00
34674;BME280;20879;55.668;37.858;2023-09-19T00:21:37;100330.47;;;9.01;100.00
34674;BME280;20879;55.668;37.858;2023-09-19T00:24:13;100331.31;;;8.92;100.00
34674;BME280;20879;55.668;37.858;2023-09-19T00:26:52;100333.06;;;8.94;100.00
34674;BME280;20879;55.668;37.858;2023-09-19T00:29:28;100340.75;;;8.84;100.00
34674;BME280;20879;55.668;37.858;2023-09-19T00:32:02;100336.47;;;8.82;100.00
34674;BME280;20879;55.668;37.858;2023-09-19T00:34:50;100335.59;;;8.77;100.00
34674;BME280;20879;55.668;37.858;2023-09-19T00:37:24;100335.59;;;8.77;100.00
34674;BME280;20879;55.668;37.858;2023-09-19T00:40:02;100322.69;;;8.67;100.00
34674;BME280;20879;55.668;37.858;2023-09-19T00:42:33;100339.03;;;8.72;100.00
34674;BME280;20879;55.668;37.858;2023-09-19T00:45:15;100337.34;;;8.78;100.00
34674;BME280;20879;55.668;37.858;2023-09-19T00:47:49;100335.59;;;8.83;100.00
34674;BME280;20879;55.668;37.858;2023-09-19T00:50:24;100335.59;;;8.80;100.00
34674;BME280;20879;55.668;37.858;2023-09-19T00:52:58;100316.66;;;8.71;100.00
34674;BME280;20879;55.668;37.858;2023-09-19T00:55:29;100327.84;;;8.81;100.00
34674;BME280;20879;55.668;37.858;2023-09-19T00:58:01;100331.31;;;8.89;100.00
34674;BME280;20879;55.668;37.858;2023-09-19T01:00:36;100330.47;;;8.97;100.00
34674;BME280;20879;55.668;37.858;2023-09-19T01:03:11;100340.81;;;9.01;100.00
34674;BME280;20879;55.668;37.858;2023-09-19T01:05:44;100345.13;;;9.02;100.00
34674;BME280;20879;55.668;37.858;2023-09-19T01:08:20;100351.13;;;8.97;100.00
34674;BME280;20879;55.668;37.858;2023-09-19T01:11:01;100344.25;;;8.89;100.00
34674;BME280;20879;55.668;37.858;2023-09-19T01:13:56;100345.09;;;8.93;100.00
34674;BME280;20879;55.668;37.858;2023-09-19T01:16:42;100327.88;;;8.89;100.00
34674;BME280;20879;55.668;37.858;2023-09-19T01:19:34;100299.47;;;8.86;100.00
34674;BME280;20879;55.668;37.858;2023-09-19T01:22:16;100337.38;;;9.12;100.00
34674;BME280;20879;55.668;37.858;2023-09-19T01:25:14;100336.53;;;9.14;100.00
34674;BME280;20879;55.668;37.858;2023-09-19T01:28:20;100317.59;;;9.14;100.00
34674;BME280;20879;55.668;37.858;2023-09-19T01:30:57;100324.44;;;9.13;100.00
34674;BME280;20879;55.668;37.858;2023-09-19T01:33:57;100333.94;;;9.08;100.00
34674;BME280;20879;55.668;37.858;2023-09-19T01:36:39;100328.75;;;8.99;100.00
34674;BME280;20879;55.668;37.858;2023-09-19T01:39:11;100325.31;;;9.00;100.00
34674;BME280;20879;55.668;37.858;2023-09-19T01:41:54;100328.78;;;9.06;100.00
34674;BME280;20879;55.668;37.858;2023-09-19T01:44:33;100319.28;;;9.07;100.00
34674;BME280;20879;55.668;37.858;2023-09-19T01:47:23;100317.56;;;9.12;100.00
34674;BME280;20879;55.668;37.858;2023-09-19T01:50:04;100311.53;;;9.12;100.00
34674;BME280;20879;55.668;37.858;2023-09-19T01:52:43;100313.28;;;9.09;100.00
34674;BME280;20879;55.668;37.858;2023-09-19T01:55:19;100299.47;;;9.07;100.00
34674;BME280;20879;55.668;37.858;2023-09-19T01:57:58;100305.50;;;9.20;100.00
34674;BME280;20879;55.668;37.858;2023-09-19T02:00:41;100316.72;;;9.22;100.00
34674;BME280;20879;55.668;37.858;2023-09-19T02:03:21;100302.94;;;9.19;100.00
34674;BME280;20879;55.668;37.858;2023-09-19T02:05:53;100303.81;;;9.24;100.00
34674;BME280;20879;55.668;37.858;2023-09-19T02:08:31;100311.53;;;9.33;100.00
34674;BME280;20879;55.668;37.858;2023-09-19T02:11:01;100302.06;;;9.26;100.00
34674;BME280;20879;55.668;37.858;2023-09-19T02:13:38;100310.69;;;9.33;100.00
34674;BME280;20879;55.668;37.858;2023-09-19T02:16:14;100303.78;;;9.38;100.00
34674;BME280;20879;55.668;37.858;2023-09-19T02:18:54;100292.59;;;9.39;100.00
34674;BME280;20879;55.668;37.858;2023-09-19T02:21:26;100296.88;;;9.44;100.00
34674;BME280;20879;55.668;37.858;2023-09-19T02:23:57;100299.47;;;9.44;100.00
34674;BME280;20879;55.668;37.858;2023-09-19T02:26:27;100301.19;;;9.45;100.00
34674;BME280;20879;55.668;37.858;2023-09-19T02:28:59;100295.16;;;9.42;100.00
34674;BME280;20879;55.668;37.858;2023-09-19T02:31:38;100296.03;;;9.33;100.00
34674;BME280;20879;55.668;37.858;2023-09-19T02:34:10;100295.19;;;9.19;100.00
34674;BME280;20879;55.668;37.858;2023-09-19T02:36:43;100290.00;;;9.03;100.00
34674;BME280;20879;55.668;37.858;2023-09-19T02:39:18;100296.03;;;8.99;100.00
34674;BME280;20879;55.668;37.858;2023-09-19T02:41:49;100287.41;;;8.91;100.00
34674;BME280;20879;55.668;37.858;2023-09-19T02:44:19;100281.38;;;8.84;100.00
34674;BME280;20879;55.668;37.858;2023-09-19T02:46:50;100291.69;;;8.84;100.00
34674;BME280;20879;55.668;37.858;2023-09-19T02:49:36;100300.31;;;8.76;100.00
34674;BME280;20879;55.668;37.858;2023-09-19T02:52:07;100304.59;;;8.61;100.00
34674;BME280;20879;55.668;37.858;2023-09-19T02:54:38;100291.66;;;8.55;100.00
34674;BME280;20879;55.668;37.858;2023-09-19T02:57:12;100292.53;;;8.48;100.00
34674;BME280;20879;55.668;37.858;2023-09-19T02:59:47;100282.13;;;8.32;100.00
34674;BME280;20879;55.668;37.858;2023-09-19T03:02:28;100274.31;;;8.18;100.00
34674;BME280;20879;55.668;37.858;2023-09-19T03:05:01;100302.72;;;8.23;100.00
34674;BME280;20879;55.668;37.858;2023-09-19T03:07:38;100308.72;;;8.16;100.00
34674;BME280;20879;55.668;37.858;2023-09-19T03:10:23;100305.25;;;8.15;100.00
34674;BME280;20879;55.668;37.858;2023-09-19T03:12:59;100301.81;;;8.10;100.00
34674;BME280;20879;55.668;37.858;2023-09-19T03:15:34;100303.53;;;8.10;100.00
34674;BME280;20879;55.668;37.858;2023-09-19T03:18:11;100306.13;;;8.13;100.00
34674;BME280;20879;55.668;37.858;2023-09-19T03:20:54;100294.94;;;8.15;100.00
34674;BME280;20879;55.668;37.858;2023-09-19T03:23:25;100290.69;;;8.19;100.00
34674;BME280;20879;55.668;37.858;2023-09-19T03:25:57;100292.44;;;8.32;100.00
34674;BME280;20879;55.668;37.858;2023-09-19T03:28:28;100293.38;;;8.47;100.00
34674;BME280;20879;55.668;37.858;2023-09-19T03:30:59;100292.53;;;8.60;100.00
34674;BME280;20879;55.668;37.858;2023-09-19T03:33:34;100271.03;;;8.64;100.00
34674;BME280;20879;55.668;37.858;2023-09-19T03:36:07;100291.72;;;8.90;100.00
34674;BME280;20879;55.668;37.858;2023-09-19T03:38:38;100283.13;;;8.96;100.00
34674;BME280;20879;55.668;37.858;2023-09-19T03:41:13;100294.34;;;9.15;100.00
34674;BME280;20879;55.668;37.858;2023-09-19T03:43:45;100290.88;;;9.27;100.00
34674;BME280;20879;55.668;37.858;2023-09-19T03:46:17;100289.13;;;9.38;100.00
34674;BME280;20879;55.668;37.858;2023-09-19T03:48:52;100272.78;;;9.33;100.00
34674;BME280;20879;55.668;37.858;2023-09-19T03:51:31;100285.66;;;9.49;100.00
34674;BME280;20879;55.668;37.858;2023-09-19T03:54:06;100297.72;;;9.57;100.00
34674;BME280;20879;55.668;37.858;2023-09-19T03:56:39;100290.81;;;9.64;100.00
34674;BME280;20879;55.668;37.858;2023-09-19T03:59:10;100289.09;;;9.71;100.00
34674;BME280;20879;55.668;37.858;2023-09-19T04:01:43;100258.03;;;9.66;100.00
34674;BME280;20879;55.668;37.858;2023-09-19T04:04:16;100286.47;;;9.83;100.00
34674;BME280;20879;55.668;37.858;2023-09-19T04:06:49;100276.97;;;9.80;99.98
34674;BME280;20879;55.668;37.858;2023-09-19T04:09:20;100286.47;;;9.78;99.79
34674;BME280;20879;55.668;37.858;2023-09-19T04:11:54;100285.63;;;9.72;99.88
34674;BME280;20879;55.668;37.858;2023-09-19T04:14:26;100287.31;;;9.90;99.50
34674;BME280;20879;55.668;37.858;2023-09-19T04:16:56;100288.16;;;9.92;99.27
34674;BME280;20879;55.668;37.858;2023-09-19T04:19:25;100291.56;;;10.05;99.19
34674;BME280;20879;55.668;37.858;2023-09-19T04:21:58;100282.00;;;10.14;98.72
34674;BME280;20879;55.668;37.858;2023-09-19T04:24:37;100282.78;;;10.32;98.78
34674;BME280;20879;55.668;37.858;2023-09-19T04:27:06;100275.03;;;10.41;98.22
34674;BME280;20879;55.668;37.858;2023-09-19T04:29:49;100273.22;;;10.53;97.51
34674;BME280;20879;55.668;37.858;2023-09-19T04:32:28;100276.66;;;10.58;96.76
34674;BME280;20879;55.668;37.858;2023-09-19T04:34:59;100273.22;;;10.59;96.29
34674;BME280;20879;55.668;37.858;2023-09-19T04:37:43;100285.31;;;10.54;95.95
34674;BME280;20879;55.668;37.858;2023-09-19T04:40:14;100275.81;;;10.54;95.73
34674;BME280;20879;55.668;37.858;2023-09-19T04:42:52;100272.31;;;10.61;96.27
34674;BME280;20879;55.668;37.858;2023-09-19T04:45:24;100272.31;;;10.64;95.92
34674;BME280;20879;55.668;37.858;2023-09-19T04:47:56;100261.09;;;10.62;95.26
34674;BME280;20879;55.668;37.858;2023-09-19T04:50:25;100261.97;;;10.58;95.42
34674;BME280;20879;55.668;37.858;2023-09-19T04:53:05;100256.81;;;10.54;94.77
34674;BME280;20879;55.668;37.858;2023-09-19T04:55:34;100262.75;;;10.71;93.97
34674;BME280;20879;55.668;37.858;2023-09-19T04:58:05;100254.19;;;10.58;94.56
34674;BME280;20879;55.668;37.858;2023-09-19T05:00:35;100264.53;;;10.66;94.62
34674;BME280;20879;55.668;37.858;2023-09-19T05:03:05;100253.31;;;10.64;94.32
34674;BME280;20879;55.668;37.858;2023-09-19T05:05:35;100248.06;;;10.70;94.37
34674;BME280;20879;55.668;37.858;2023-09-19T05:08:20;100269.50;;;10.94;94.20
34674;BME280;20879;55.668;37.858;2023-09-19T05:10:50;100270.31;;;11.00;93.80
34674;BME280;20879;55.668;37.858;2023-09-19T05:13:19;100265.97;;;11.04;93.81
34674;BME280;20879;55.668;37.858;2023-09-19T05:15:50;100264.25;;;11.03;93.37
34674;BME280;20879;55.668;37.858;2023-09-19T05:18:27;100260.78;;;11.04;93.35
34674;BME280;20879;55.668;37.858;2023-09-19T05:21:01;100251.88;;;11.31;93.43
34674;BME280;20879;55.668;37.858;2023-09-19T05:23:40;100235.44;;;11.34;91.95
34674;BME280;20879;55.668;37.858;2023-09-19T05:26:09;100253.47;;;11.46;91.82
34674;BME280;20879;55.668;37.858;2023-09-19T05:28:43;100258.44;;;11.68;91.21
34674;BME280;20879;55.668;37.858;2023-09-19T05:31:21;100253.06;;;11.85;90.59
34674;BME280;20879;55.668;37.858;2023-09-19T05:33:57;100249.56;;;11.89;90.15
34674;BME280;20879;55.668;37.858;2023-09-19T05:36:29;100244.28;;;11.97;89.69
34674;BME280;20879;55.668;37.858;2023-09-19T05:39:08;100241.53;;;12.07;89.39
34674;BME280;20879;55.668;37.858;2023-09-19T05:41:44;100233.59;;;12.21;88.75
34674;BME280;20879;55.668;37.858;2023-09-19T05:44:24;100208.66;;;12.10;88.05
34674;BME280;20879;55.668;37.858;2023-09-19T05:46:56;100236.56;;;12.54;88.39
34674;BME280;20879;55.668;37.858;2023-09-19T05:49:26;100239.91;;;12.63;87.41
34674;BME280;20879;55.668;37.858;2023-09-19T05:51:56;100238.03;;;12.74;87.12
34674;BME280;20879;55.668;37.858;2023-09-19T05:54:31;100228.94;;;13.00;86.43
34674;BME280;20879;55.668;37.858;2023-09-19T05:57:03;100238.41;;;13.04;85.53
34674;BME280;20879;55.668;37.858;2023-09-19T05:59:44;100234.88;;;13.06;86.00
34674;BME280;20879;55.668;37.858;2023-09-19T06:02:16;100238.16;;;13.19;85.18
34674;BME280;20879;55.668;37.858;2023-09-19T06:04:49;100230.97;;;13.31;84.87
34674;BME280;20879;55.668;37.858;2023-09-19T06:07:22;100221.44;;;13.33;84.34
34674;BME280;20879;55.668;37.858;2023-09-19T06:09:58;100234.69;;;13.66;83.96
34674;BME280;20879;55.668;37.858;2023-09-19T06:12:32;100233.53;;;13.80;83.33
34674;BME280;20879;55.668;37.858;2023-09-19T06:15:06;100224.81;;;13.83;82.62
34674;BME280;20879;55.668;37.858;2023-09-19T06:17:42;100224.00;;;13.81;82.48
34674;BME280;20879;55.668;37.858;2023-09-19T06:20:12;100225.25;;;13.60;82.76
34674;BME280;20879;55.668;37.858;2023-09-19T06:22:44;100224.91;;;13.78;83.40
34674;BME280;20879;55.668;37.858;2023-09-19T06:25:17;100229.34;;;13.75;82.74
34674;BME280;20879;55.668;37.858;2023-09-19T06:27:51;100230.97;;;13.79;82.39
34674;BME280;20879;55.668;37.858;2023-09-19T06:30:23;100228.66;;;13.65;82.78
34674;BME280;20879;55.668;37.858;2023-09-19T06:33:00;100223.66;;;13.53;83.14
34674;BME280;20879;55.668;37.858;2023-09-19T06:35:39;100220.41;;;13.43;83.72
34674;BME280;20879;55.668;37.858;2023-09-19T06:38:17;100226.41;;;13.45;83.62
34674;BME280;20879;55.668;37.858;2023-09-19T06:40:54;100220.41;;;13.43;84.37
34674;BME280;20879;55.668;37.858;2023-09-19T06:43:28;100225.50;;;13.48;83.95
34674;BME280;20879;55.668;37.858;2023-09-19T06:45:59;100224.22;;;13.69;84.26
34674;BME280;20879;55.668;37.858;2023-09-19T06:48:29;100221.53;;;13.73;83.51
34674;BME280;20879;55.668;37.858;2023-09-19T06:51:06;100211.97;;;13.75;83.04
34674;BME280;20879;55.668;37.858;2023-09-19T06:53:43;100217.31;;;13.68;83.30
34674;BME280;20879;55.668;37.858;2023-09-19T06:56:21;100212.22;;;13.61;83.95
34674;BME280;20879;55.668;37.858;2023-09-19T06:58:56;100214.94;;;13.55;83.71
34674;BME280;20879;55.668;37.858;2023-09-19T07:01:30;100206.28;;;13.55;84.32
34674;BME280;20879;55.668;37.858;2023-09-19T07:04:07;100213.81;;;13.69;84.09
34674;BME280;20879;55.668;37.858;2023-09-19T07:06:44;100214.41;;;13.83;84.07
34674;BME280;20879;55.668;37.858;2023-09-19T07:09:19;100200.31;;;13.93;83.70
34674;BME280;20879;55.668;37.858;2023-09-19T07:11:52;100210.47;;;14.06;83.65
34674;BME280;20879;55.668;37.858;2023-09-19T07:14:33;100219.84;;;14.13;83.57
34674;BME280;20879;55.668;37.858;2023-09-19T07:17:03;100218.13;;;14.12;83.38
34674;BME280;20879;55.668;37.858;2023-09-19T07:19:34;100209.75;;;13.97;83.81
34674;BME280;20879;55.668;37.858;2023-09-19T07:22:12;100220.38;;;13.88;84.43
34674;BME280;20879;55.668;37.858;2023-09-19T07:24:44;100202.31;;;13.79;84.79
34674;BME280;20879;55.668;37.858;2023-09-19T07:27:20;100226.19;;;13.99;85.01
34674;BME280;20879;55.668;37.858;2023-09-19T07:29:52;100215.69;;;14.06;84.84
34674;BME280;20879;55.668;37.858;2023-09-19T07:32:25;100219.50;;;14.28;84.13
34674;BME280;20879;55.668;37.858;2023-09-19T07:35:03;100218.50;;;14.73;82.81
34674;BME280;20879;55.668;37.858;2023-09-19T07:37:35;100211.00;;;15.28;81.48
34674;BME280;20879;55.668;37.858;2023-09-19T07:40:13;100188.13;;;15.69;79.38
34674;BME280;20879;55.668;37.858;2023-09-19T07:42:51;100217.97;;;16.50;77.03
34674;BME280;20879;55.668;37.858;2023-09-19T07:45:21;100207.94;;;16.91;75.14
34674;BME280;20879;55.668;37.858;2023-09-19T07:47:52;100214.53;;;17.03;74.01
34674;BME280;20879;55.668;37.858;2023-09-19T07:50:28;100184.19;;;17.23;73.05
34674;BME280;20879;55.668;37.858;2023-09-19T07:52:57;100152.00;;;17.21;72.11
34674;BME280;20879;55.668;37.858;2023-09-19T07:55:32;100205.19;;;17.70;71.82
34674;BME280;20879;55.668;37.858;2023-09-19T07:58:05;100205.88;;;17.99;70.41
34674;BME280;20879;55.668;37.858;2023-09-19T08:00:35;100186.09;;;18.14;69.90
34674;BME280;20879;55.668;37.858;2023-09-19T08:03:12;100178.19;;;18.38;68.52
34674;BME280;20879;55.668;37.858;2023-09-19T08:05:45;100185.88;;;18.42;68.33
34674;BME280;20879;55.668;37.858;2023-09-19T08:08:27;100181.59;;;18.40;66.47
34674;BME280;20879;55.668;37.858;2023-09-19T08:10:57;100183.50;;;18.36;67.87
34674;BME280;20879;55.668;37.858;2023-09-19T08:13:40;100172.69;;;18.44;67.32
34674;BME280;20879;55.668;37.858;2023-09-19T08:16:17;100174.41;;;18.45;67.53
34674;BME280;20879;55.668;37.858;2023-09-19T08:18:49;100158.19;;;18.35;67.38
34674;BME280;20879;55.668;37.858;2023-09-19T08:21:29;100153.72;;;18.37;67.51
34674;BME280;20879;55.668;37.858;2023-09-19T08:24:00;100149.53;;;18.55;66.90
34674;BME280;20879;55.668;37.858;2023-09-19T08:26:31;100152.38;;;18.69;67.02
34674;BME280;20879;55.668;37.858;2023-09-19T08:29:09;100146.75;;;19.01;66.12
34674;BME280;20879;55.668;37.858;2023-09-19T08:31:42;100150.03;;;19.25;65.01
34674;BME280;20879;55.668;37.858;2023-09-19T08:34:20;100146.47;;;19.47;64.50
34674;BME280;20879;55.668;37.858;2023-09-19T08:36:51;100138.59;;;19.66;64.03
34674;BME280;20879;55.668;37.858;2023-09-19T08:39:30;100143.47;;;19.73;63.04
34674;BME280;20879;55.668;37.858;2023-09-19T08:42:03;100136.91;;;19.84;63.19
34674;BME280;20879;55.668;37.858;2023-09-19T08:44:38;100136.13;;;20.01;62.20
34674;BME280;20879;55.668;37.858;2023-09-19T08:47:11;100133.00;;;20.29;62.13
34674;BME280;20879;55.668;37.858;2023-09-19T08:49:55;100130.06;;;20.72;60.57
34674;BME280;20879;55.668;37.858;2023-09-19T08:52:41;100136.88;;;21.09;59.76
34674;BME280;20879;55.668;37.858;2023-09-19T08:55:19;100129.66;;;20.97;58.65
34674;BME280;20879;55.668;37.858;2023-09-19T08:57:50;100114.16;;;20.56;59.95
34674;BME280;20879;55.668;37.858;2023-09-19T09:00:23;100102.31;;;20.30;60.34
34674;BME280;20879;55.668;37.858;2023-09-19T09:02:58;100126.25;;;20.06;61.34
34674;BME280;20879;55.668;37.858;2023-09-19T09:05:37;100126.88;;;19.73;62.47
34674;BME280;20879;55.668;37.858;2023-09-19T09:08:16;100125.53;;;19.45;63.01
34674;BME280;20879;55.668;37.858;2023-09-19T09:10:46;100119.28;;;19.67;63.87
34674;BME280;20879;55.668;37.858;2023-09-19T09:13:23;100121.03;;;19.47;63.45
34674;BME280;20879;55.668;37.858;2023-09-19T09:15:57;100096.34;;;19.32;63.97
34674;BME280;20879;55.668;37.858;2023-09-19T09:18:33;100095.28;;;19.36;63.56
34674;BME280;20879;55.668;37.858;2023-09-19T09:21:11;100113.59;;;19.57;63.66
34674;BME280;20879;55.668;37.858;2023-09-19T09:23:53;100087.41;;;19.55;62.86
34674;BME280;20879;55.668;37.858;2023-09-19T09:26:41;100108.19;;;19.98;62.71
34674;BME280;20879;55.668;37.858;2023-09-19T09:29:19;100089.72;;;20.00;62.52
34674;BME280;20879;55.668;37.858;2023-09-19T09:32:22;100095.28;;;20.30;61.35
34674;BME280;20879;55.668;37.858;2023-09-19T09:34:55;100108.19;;;20.35;61.74
34674;BME280;20879;55.668;37.858;2023-09-19T09:37:33;100101.38;;;20.31;61.51
34674;BME280;20879;55.668;37.858;2023-09-19T09:40:21;100102.94;;;20.52;61.05
34674;BME280;20879;55.668;37.858;2023-09-19T09:43:31;100098.75;;;20.83;60.92
34674;BME280;20879;55.668;37.858;2023-09-19T09:46:16;100094.59;;;20.79;60.06
34674;BME280;20879;55.668;37.858;2023-09-19T09:49:06;100101.38;;;20.66;60.44
34674;BME280;20879;55.668;37.858;2023-09-19T09:51:49;100107.13;;;20.74;59.95
34674;BME280;20879;55.668;37.858;2023-09-19T09:54:34;100102.31;;;21.00;59.79
34674;BME280;20879;55.668;37.858;2023-09-19T09:57:07;100074.72;;;21.07;59.02
34674;BME280;20879;55.668;37.858;2023-09-19T09:59:55;100067.84;;;21.04;58.96
34674;BME280;20879;55.668;37.858;2023-09-19T10:02:56;100090.72;;;21.20;58.61
34674;BME280;20879;55.668;37.858;2023-09-19T10:05:46;100088.94;;;21.20;58.87
34674;BME280;20879;55.668;37.858;2023-09-19T10:08:40;100071.28;;;21.22;58.70
34674;BME280;20879;55.668;37.858;2023-09-19T10:11:48;100071.47;;;20.68;59.61
34674;BME280;20879;55.668;37.858;2023-09-19T10:14:43;100084.34;;;20.38;60.67
34674;BME280;20879;55.668;37.858;2023-09-19T10:17:23;100085.81;;;20.26;61.65
34674;BME280;20879;55.668;37.858;2023-09-19T10:20:08;100072.59;;;20.28;61.22
34674;BME280;20879;55.668;37.858;2023-09-19T10:23:02;100078.94;;;20.41;61.74
34674;BME280;20879;55.668;37.858;2023-09-19T10:25:40;100065.44;;;20.49;60.95
34674;BME280;20879;55.668;37.858;2023-09-19T10:28:31;100076.78;;;20.49;61.13
34674;BME280;20879;55.668;37.858;2023-09-19T10:31:18;100009.38;;;19.77;61.60
34674;BME280;20879;55.668;37.858;2023-09-19T10:34:06;100065.13;;;20.37;61.46
34674;BME280;20879;55.668;37.858;2023-09-19T10:36:53;100060.69;;;20.38;61.98
34674;BME280;20879;55.668;37.858;2023-09-19T10:39:34;100038.66;;;20.23;62.39
34674;BME280;20879;55.668;37.858;2023-09-19T10:42:11;100051.19;;;20.35;62.14
34674;BME280;20879;55.668;37.858;2023-09-19T10:44:55;100053.59;;;20.40;62.47
34674;BME280;20879;55.668;37.858;2023-09-19T10:47:32;100052.34;;;20.47;62.19
34674;BME280;20879;55.668;37.858;2023-09-19T10:50:23;100047.88;;;20.67;61.96
34674;BME280;20879;55.668;37.858;2023-09-19T10:52:55;100039.19;;;20.65;61.82
34674;BME280;20879;55.668;37.858;2023-09-19T10:55:48;100046.94;;;20.50;62.30
34674;BME280;20879;55.668;37.858;2023-09-19T10:58:31;100039.50;;;20.41;62.68
34674;BME280;20879;55.668;37.858;2023-09-19T11:01:44;100027.72;;;20.48;62.60
34674;BME280;20879;55.668;37.858;2023-09-19T11:04:30;100032.63;;;20.21;63.53
34674;BME280;20879;55.668;37.858;2023-09-19T11:07:11;100013.63;;;19.79;64.95
34674;BME280;20879;55.668;37.858;2023-09-19T11:09:55;100003.53;;;19.52;65.58
34674;BME280;20879;55.668;37.858;2023-09-19T11:12:57;100029.94;;;19.49;66.18
34674;BME280;20879;55.668;37.858;2023-09-19T11:16:04;100026.31;;;19.33;67.19
34674;BME280;20879;55.668;37.858;2023-09-19T11:18:56;100024.84;;;19.08;67.86
34674;BME280;20879;55.668;37.858;2023-09-19T11:21:57;100027.16;;;18.95;68.86
34674;BME280;20879;55.668;37.858;2023-09-19T11:24:36;100038.78;;;18.90;69.10
34674;BME280;20879;55.668;37.858;2023-09-19T11:27:14;100030.75;;;18.93;69.42
34674;BME280;20879;55.668;37.858;2023-09-19T11:30:26;100016.59;;;18.97;69.16
34674;BME280;20879;55.668;37.858;2023-09-19T11:33:23;100035.47;;;18.84;69.97
34674;BME280;20879;55.668;37.858;2023-09-19T11:36:06;100033.53;;;18.90;69.68
34674;BME280;20879;55.668;37.858;2023-09-19T11:39:02;100024.03;;;19.06;69.81
34674;BME280;20879;55.668;37.858;2023-09-19T11:41:42;100021.47;;;19.04;69.74
34674;BME280;20879;55.668;37.858;2023-09-19T11:44:37;100024.38;;;18.98;70.09
34674;BME280;20879;55.668;37.858;2023-09-19T11:47:20;100020.63;;;19.04;69.89
34674;BME280;20879;55.668;37.858;2023-09-19T11:49:52;100021.84;;;19.16;70.12
34674;BME280;20879;55.668;37.858;2023-09-19T11:52:30;100014.63;;;19.21;69.32
34674;BME280;20879;55.668;37.858;2023-09-19T11:55:13;99994.69;;;19.17;69.50
34674;BME280;20879;55.668;37.858;2023-09-19T11:57:51;100007.66;;;19.39;69.52
34674;BME280;20879;55.668;37.858;2023-09-19T12:00:31;100008.00;;;19.50;69.29
34674;BME280;20879;55.668;37.858;2023-09-19T12:03:11;100003.88;;;19.64;69.28
34674;BME280;20879;55.668;37.858;2023-09-19T12:05:43;100000.03;;;19.71;68.68
34674;BME280;20879;55.668;37.858;2023-09-19T12:08:25;99995.69;;;19.70;68.83
34674;BME280;20879;55.668;37.858;2023-09-19T12:10:58;99992.91;;;19.73;69.09
34674;BME280;20879;55.668;37.858;2023-09-19T12:13:42;99993.66;;;19.75;68.93
34674;BME280;20879;55.668;37.858;2023-09-19T12:16:16;99994.34;;;19.80;68.96
34674;BME280;20879;55.668;37.858;2023-09-19T12:22:00;99983.81;;;19.80;68.95
34674;BME280;20879;55.668;37.858;2023-09-19T12:24:45;99973.59;;;19.74;68.93
34674;BME280;20879;55.668;37.858;2023-09-19T12:27:23;99977.84;;;19.77;69.19
34674;BME280;20879;55.668;37.858;2023-09-19T12:30:00;99970.31;;;19.69;69.48
34674;BME280;20879;55.668;37.858;2023-09-19T12:32:59;99968.84;;;19.63;69.66
34674;BME280;20879;55.668;37.858;2023-09-19T12:35:32;99961.84;;;19.64;69.50
34674;BME280;20879;55.668;37.858;2023-09-19T12:38:06;99958.81;;;19.71;69.12
34674;BME280;20879;55.668;37.858;2023-09-19T12:40:38;99955.72;;;19.63;69.90
34674;BME280;20879;55.668;37.858;2023-09-19T12:49:20;99954.03;;;19.62;69.40
34674;BME280;20879;55.668;37.858;2023-09-19T12:51:55;99951.50;;;19.61;70.17
34674;BME280;20879;55.668;37.858;2023-09-19T12:54:40;99918.66;;;19.52;70.29
34674;BME280;20879;55.668;37.858;2023-09-19T12:57:27;99942.38;;;19.68;70.22
34674;BME280;20879;55.668;37.858;2023-09-19T13:00:03;99938.19;;;19.64;70.21
34674;BME280;20879;55.668;37.858;2023-09-19T13:03:13;99940.91;;;19.62;70.42
34674;BME280;20879;55.668;37.858;2023-09-19T13:05:59;99945.06;;;19.66;70.67
34674;BME280;20879;55.668;37.858;2023-09-19T13:08:36;99941.03;;;19.78;70.90
34674;BME280;20879;55.668;37.858;2023-09-19T13:11:23;99931.72;;;19.71;70.77
34674;BME280;20879;55.668;37.858;2023-09-19T13:14:15;99930.16;;;19.67;71.37
34674;BME280;20879;55.668;37.858;2023-09-19T13:16:58;99925.06;;;19.64;71.16
34674;BME280;20879;55.668;37.858;2023-09-19T13:19:44;99923.13;;;19.67;71.64
34674;BME280;20879;55.668;37.858;2023-09-19T13:22:43;99918.59;;;19.71;71.75
34674;BME280;20879;55.668;37.858;2023-09-19T13:25:18;99916.88;;;19.70;71.53
34674;BME280;20879;55.668;37.858;2023-09-19T13:28:05;99923.03;;;19.69;71.64
34674;BME280;20879;55.668;37.858;2023-09-19T13:30:46;99914.41;;;19.67;72.29
34674;BME280;20879;55.668;37.858;2023-09-19T13:33:25;99914.41;;;19.67;72.52
34674;BME280;20879;55.668;37.858;2023-09-19T13:36:04;99912.53;;;19.69;72.72
34674;BME280;20879;55.668;37.858;2023-09-19T13:38:38;99904.41;;;19.73;72.58
34674;BME280;20879;55.668;37.858;2023-09-19T13:41:20;99900.59;;;19.81;72.87
34674;BME280;20879;55.668;37.858;2023-09-19T13:44:05;99897.59;;;19.88;72.72
34674;BME280;20879;55.668;37.858;2023-09-19T13:46:44;99893.72;;;19.96;71.98